Time;durP1;ratioP1;P1;durP2;ratioP2;P2;SDS_P1;SDS_P2;PMS_P1;PMS_P2;Temp;Humidity;BMP_temperature;BMP_pressure;BME280_temperature;BME280_humidity;BME280_pressure;Samples;Min_cycle;Max_cycle;Signal;HPM_P1;HPM_P2
2021/12/22 00:00:24;;;;;;;20.60;10.60;;;;;;;-1.91;100.00;96877.22;4960910;28;20209;-83
2021/12/22 00:02:51;;;;;;;20.07;9.93;;;;;;;-1.97;100.00;96881.25;4952497;28;20213;-84
2021/12/22 00:05:23;;;;;;;19.70;10.43;;;;;;;-1.94;100.00;96886.25;4957484;28;20270;-84
2021/12/22 00:07:51;;;;;;;19.03;9.30;;;;;;;-1.93;100.00;96882.63;4956197;28;20323;-84
2021/12/22 00:10:19;;;;;;;19.50;9.90;;;;;;;-1.90;100.00;96881.53;4953190;28;20573;-84
2021/12/22 00:12:47;;;;;;;18.13;8.90;;;;;;;-1.86;100.00;96877.59;4965438;28;20213;-83
2021/12/22 00:15:15;;;;;;;17.20;9.33;;;;;;;-1.79;100.00;96881.38;4948584;28;20208;-83
2021/12/22 00:17:43;;;;;;;18.43;9.80;;;;;;;-1.88;100.00;96873.47;4959282;28;20213;-84
2021/12/22 00:20:13;;;;;;;18.17;9.53;;;;;;;-1.91;100.00;96872.75;4952679;28;20264;-83
2021/12/22 00:22:42;;;;;;;19.13;9.90;;;;;;;-1.94;100.00;96870.38;4941674;28;20289;-84
2021/12/22 00:25:10;;;;;;;19.50;10.23;;;;;;;-2.03;100.00;96875.66;4950265;28;20203;-83
2021/12/22 00:27:37;;;;;;;19.73;10.73;;;;;;;-2.07;100.00;96869.84;4964230;28;20235;-83
2021/12/22 00:30:05;;;;;;;21.07;11.60;;;;;;;-2.08;100.00;96877.91;4958054;28;20209;-83
2021/12/22 00:32:34;;;;;;;19.10;9.83;;;;;;;-2.06;100.00;96875.97;4952212;28;20216;-83
2021/12/22 00:35:02;;;;;;;20.87;10.53;;;;;;;-1.95;100.00;96873.16;4946377;28;20240;-84
2021/12/22 00:37:33;;;;;;;17.83;10.23;;;;;;;-1.85;100.00;96870.50;4945378;28;20241;-83
2021/12/22 00:40:02;;;;;;;17.07;9.17;;;;;;;-1.79;100.00;96870.81;4961675;28;20212;-84
2021/12/22 00:42:29;;;;;;;19.50;9.83;;;;;;;-1.81;100.00;96864.81;4950496;28;20209;-83
2021/12/22 00:44:56;;;;;;;14.23;8.20;;;;;;;-1.78;100.00;96884.84;4952278;28;20220;-83
2021/12/22 00:47:26;;;;;;;16.87;9.33;;;;;;;-1.80;100.00;96878.88;4951039;28;20331;-82
2021/12/22 00:49:54;;;;;;;17.63;9.07;;;;;;;-1.80;100.00;96879.72;4951543;28;20205;-84
2021/12/22 00:52:21;;;;;;;18.33;9.87;;;;;;;-1.80;100.00;96890.31;4946848;28;20213;-84
2021/12/22 00:54:51;;;;;;;20.40;9.10;;;;;;;-1.87;100.00;96891.81;4947167;28;20200;-88
2021/12/22 00:57:19;;;;;;;19.07;9.87;;;;;;;-1.98;100.00;96889.34;4956102;28;20288;-88
2021/12/22 00:59:48;;;;;;;19.87;9.57;;;;;;;-1.93;100.00;96903.81;4945565;28;20233;-86
2021/12/22 01:02:19;;;;;;;15.10;8.60;;;;;;;-1.93;100.00;96905.63;4961892;28;20204;-87
2021/12/22 01:04:47;;;;;;;18.37;9.60;;;;;;;-1.86;100.00;96906.72;4967657;28;20248;-88
2021/12/22 01:07:14;;;;;;;17.43;9.07;;;;;;;-1.81;100.00;96907.16;4970062;28;20235;-87
2021/12/22 01:09:42;;;;;;;18.30;9.03;;;;;;;-1.79;100.00;96907.88;4960265;28;20272;-87
2021/12/22 01:12:10;;;;;;;15.50;9.03;;;;;;;-1.70;100.00;96914.94;4950815;28;20209;-87
2021/12/22 01:14:39;;;;;;;19.50;10.20;;;;;;;-1.65;100.00;96910.06;4954244;28;20291;-87
2021/12/22 01:17:09;;;;;;;22.43;10.90;;;;;;;-1.57;100.00;96904.91;4948743;28;20209;-88
2021/12/22 01:19:44;;;;;;;20.87;11.03;;;;;;;-1.55;100.00;96908.25;4953200;28;20204;-87
2021/12/22 01:22:22;;;;;;;18.87;10.17;;;;;;;-1.54;100.00;96904.63;4954736;28;20196;-87
2021/12/22 01:24:59;;;;;;;18.60;10.43;;;;;;;-1.45;100.00;96915.34;4946554;28;20209;-87
2021/12/22 01:27:28;;;;;;;17.07;9.80;;;;;;;-1.36;100.00;96906.53;4968487;28;20239;-87
2021/12/22 01:29:56;;;;;;;18.93;9.37;;;;;;;-1.28;100.00;96911.97;4954144;28;20258;-88
2021/12/22 01:32:25;;;;;;;19.80;10.77;;;;;;;-1.26;100.00;96917.94;4958108;28;20273;-88
2021/12/22 01:34:52;;;;;;;18.53;9.97;;;;;;;-1.24;100.00;96916.81;4950011;28;20245;-88
2021/12/22 01:37:19;;;;;;;24.57;11.60;;;;;;;-1.25;100.00;96924.91;4950254;28;20273;-87
2021/12/22 01:39:46;;;;;;;20.20;11.17;;;;;;;-1.34;100.00;96920.47;4947396;28;20210;-87
2021/12/22 01:42:13;;;;;;;21.33;11.63;;;;;;;-1.45;100.00;96920.66;4953761;28;20204;-87
2021/12/22 01:45:00;;;;;;;22.50;11.37;;;;;;;-1.50;100.00;96930.81;4952866;28;20284;-87
2021/12/22 01:50:17;;;;;;;18.10;9.60;;;;;;;-1.61;100.00;96929.97;4972525;28;20233;-88
2021/12/22 01:52:44;;;;;;;19.47;9.87;;;;;;;-1.65;100.00;96927.75;4953018;28;20280;-87
2021/12/22 01:55:26;;;;;;;17.50;9.27;;;;;;;-1.66;100.00;96926.94;4950615;28;20278;-89
2021/12/22 01:57:54;;;;;;;19.97;10.47;;;;;;;-1.66;100.00;96931.38;4955781;28;20233;-88
2021/12/22 02:00:23;;;;;;;21.20;11.73;;;;;;;-1.73;100.00;96920.53;4948887;28;20215;-86
2021/12/22 02:02:52;;;;;;;24.57;12.40;;;;;;;-1.70;100.00;96920.22;4967500;28;20221;-87
2021/12/22 02:05:19;;;;;;;21.80;12.10;;;;;;;-1.70;100.00;96911.47;4946612;28;20224;-88
2021/12/22 02:07:48;;;;;;;21.37;11.63;;;;;;;-1.63;100.00;96923.19;4954203;28;20259;-88
2021/12/22 02:10:34;;;;;;;22.87;12.20;;;;;;;-1.67;100.00;96906.72;4952535;28;20223;-86
2021/12/22 02:13:02;;;;;;;21.17;11.33;;;;;;;-1.58;100.00;96903.22;4970674;28;20208;-87
2021/12/22 02:15:33;;;;;;;26.77;12.80;;;;;;;-1.65;100.00;96912.72;4942080;28;20263;-86
2021/12/22 02:18:04;;;;;;;25.77;12.43;;;;;;;-1.69;100.00;96897.25;4952346;28;20232;-87
2021/12/22 02:20:33;;;;;;;24.50;12.23;;;;;;;-1.71;100.00;96901.88;4955895;28;20300;-88
2021/12/22 02:23:00;;;;;;;23.87;12.37;;;;;;;-1.80;100.00;96900.06;4954731;28;20201;-87
2021/12/22 02:25:39;;;;;;;26.77;12.67;;;;;;;-1.83;100.00;96892.38;4941418;28;20295;-87
2021/12/22 02:28:14;;;;;;;23.67;12.00;;;;;;;-1.91;100.00;96890.44;4951945;28;20236;-86
2021/12/22 02:30:41;;;;;;;25.83;11.97;;;;;;;-1.90;100.00;96889.47;4966293;28;20225;-87
2021/12/22 02:33:21;;;;;;;23.73;13.00;;;;;;;-1.88;100.00;96884.03;4937533;28;20216;-87
2021/12/22 02:36:08;;;;;;;23.87;12.40;;;;;;;-1.87;100.00;96880.41;4945230;28;20233;-88
2021/12/22 02:38:39;;;;;;;23.80;11.00;;;;;;;-1.90;100.00;96889.47;4944263;28;20213;-87
2021/12/22 02:41:09;;;;;;;26.10;12.90;;;;;;;-1.98;100.00;96878.75;4950123;28;20207;-88
2021/12/22 02:43:44;;;;;;;26.43;12.70;;;;;;;-1.98;100.00;96884.03;4950204;28;20240;-87
2021/12/22 02:46:12;;;;;;;21.53;11.80;;;;;;;-1.94;100.00;96880.97;4968134;28;20223;-86
2021/12/22 02:48:40;;;;;;;24.47;11.97;;;;;;;-1.98;100.00;96878.75;4945744;28;20247;-88
2021/12/22 02:51:09;;;;;;;23.83;12.93;;;;;;;-2.01;100.00;96876.38;4961207;28;20273;-87
2021/12/22 02:53:42;;;;;;;24.40;12.10;;;;;;;-1.98;100.00;96868.16;4958705;28;20204;-87
2021/12/22 02:56:26;;;;;;;27.13;13.23;;;;;;;-1.97;100.00;96869.84;4968988;28;20211;-87
2021/12/22 02:59:02;;;;;;;24.07;12.33;;;;;;;-1.93;100.00;96871.22;4948687;28;20231;-86
2021/12/22 03:02:03;;;;;;;25.70;12.87;;;;;;;-1.93;100.00;96871.22;4963961;28;20212;-87
2021/12/22 03:04:31;;;;;;;25.97;12.97;;;;;;;-1.99;100.00;96867.31;4950641;28;20226;-87
2021/12/22 03:07:04;;;;;;;24.13;12.63;;;;;;;-1.92;100.00;96883.47;4942462;28;20212;-87
2021/12/22 03:09:33;;;;;;;23.07;11.77;;;;;;;-1.98;100.00;96881.41;4942867;28;20226;-87
2021/12/22 03:12:03;;;;;;;21.87;12.07;;;;;;;-2.06;100.00;96874.16;4949157;28;20237;-88
2021/12/22 03:14:30;;;;;;;21.73;11.90;;;;;;;-2.03;100.00;96881.78;4952885;28;20219;-87
2021/12/22 03:16:58;;;;;;;24.40;11.47;;;;;;;-1.95;100.00;96889.03;4946561;28;20291;-87
2021/12/22 03:19:27;;;;;;;20.70;11.23;;;;;;;-1.89;100.00;96887.66;4955275;28;20220;-87
2021/12/22 03:22:00;;;;;;;21.70;12.30;;;;;;;-1.83;100.00;96881.78;4966257;28;20291;-87
2021/12/22 03:24:30;;;;;;;22.17;11.73;;;;;;;-1.78;100.00;96885.69;4946383;28;20244;-87
2021/12/22 03:27:00;;;;;;;23.80;11.47;;;;;;;-1.73;100.00;96888.75;4947882;28;20239;-86
2021/12/22 03:29:27;;;;;;;21.47;11.77;;;;;;;-1.65;100.00;96894.19;4955630;28;20292;-86
2021/12/22 03:31:55;;;;;;;24.53;12.57;;;;;;;-1.65;100.00;96888.06;4956686;28;20208;-88
2021/12/22 03:34:22;;;;;;;21.23;11.30;;;;;;;-1.65;100.00;96891.53;4951541;28;20244;-87
2021/12/22 03:36:49;;;;;;;21.43;11.50;;;;;;;-1.66;100.00;96900.44;4957546;28;20209;-86
2021/12/22 03:39:17;;;;;;;19.97;11.73;;;;;;;-1.71;100.00;96896.56;4953402;28;20209;-86
2021/12/22 03:41:47;;;;;;;22.47;12.33;;;;;;;-1.73;100.00;96898.50;4960690;28;20252;-87
2021/12/22 03:44:14;;;;;;;21.60;11.07;;;;;;;-1.71;100.00;96896.56;4953449;28;20319;-87
2021/12/22 03:46:41;;;;;;;23.57;11.87;;;;;;;-1.65;100.00;96893.34;4954791;28;20213;-86
2021/12/22 03:49:11;;;;;;;21.80;11.67;;;;;;;-1.61;100.00;96900.00;4966729;28;20227;-86
2021/12/22 03:51:38;;;;;;;21.97;11.03;;;;;;;-1.67;100.00;96909.38;4955693;28;20211;-86
2021/12/22 03:54:07;;;;;;;20.50;11.00;;;;;;;-1.73;100.00;96901.16;4954883;28;20287;-86
2021/12/22 03:56:34;;;;;;;23.57;12.20;;;;;;;-1.83;100.00;96909.09;4970174;28;20295;-87
2021/12/22 03:59:03;;;;;;;21.13;11.20;;;;;;;-1.84;100.00;96917.19;4949886;29;20217;-86
2021/12/22 04:01:30;;;;;;;23.03;11.73;;;;;;;-1.87;100.00;96913.00;4950184;28;20217;-86
2021/12/22 04:04:03;;;;;;;22.23;11.97;;;;;;;-1.92;100.00;96909.94;4950699;28;20315;-87
2021/12/22 04:06:30;;;;;;;19.37;10.50;;;;;;;-1.87;100.00;96922.78;4956933;28;20213;-87
2021/12/22 04:08:57;;;;;;;21.87;10.67;;;;;;;-1.95;100.00;96920.78;4959335;28;20352;-86
2021/12/22 04:11:24;;;;;;;21.67;10.37;;;;;;;-1.99;100.00;96917.59;4956171;28;20209;-86
2021/12/22 04:13:51;;;;;;;23.13;11.57;;;;;;;-2.09;100.00;96908.81;4951601;28;20209;-86
2021/12/22 04:16:19;;;;;;;22.73;10.27;;;;;;;-2.06;100.00;96913.84;4954448;28;20193;-87
2021/12/22 04:18:47;;;;;;;20.67;10.87;;;;;;;-2.00;100.00;96915.09;4956408;28;20299;-86
2021/12/22 04:21:14;;;;;;;23.00;11.90;;;;;;;-2.02;100.00;96917.03;4948504;28;20288;-86
2021/12/22 04:23:41;;;;;;;20.70;11.30;;;;;;;-2.09;100.00;96898.25;4948236;28;20215;-86
2021/12/22 04:26:08;;;;;;;22.30;10.77;;;;;;;-2.11;100.00;96912.56;4969731;28;20208;-86
2021/12/22 04:28:35;;;;;;;21.33;10.70;;;;;;;-2.07;100.00;96921.91;4946556;28;20235;-87
2021/12/22 04:31:02;;;;;;;20.97;11.47;;;;;;;-2.04;100.00;96911.06;4957278;28;20211;-86
2021/12/22 04:33:31;;;;;;;22.23;11.20;;;;;;;-2.05;100.00;96909.41;4955426;28;20201;-87
2021/12/22 04:35:58;;;;;;;21.13;11.10;;;;;;;-2.05;100.00;96912.03;4954780;28;20230;-86
2021/12/22 04:38:25;;;;;;;23.10;12.33;;;;;;;-2.10;100.00;96911.59;4954213;28;20303;-87
2021/12/22 04:40:52;;;;;;;24.73;12.47;;;;;;;-2.13;100.00;96904.78;4952996;28;20229;-86
2021/12/22 04:43:19;;;;;;;24.83;12.40;;;;;;;-2.05;100.00;96914.69;4952523;28;20248;-87
2021/12/22 04:45:47;;;;;;;25.13;12.67;;;;;;;-2.09;100.00;96911.47;4952825;28;20193;-86
2021/12/22 04:48:14;;;;;;;22.23;11.77;;;;;;;-2.02;100.00;96914.38;4959731;28;20236;-86
2021/12/22 04:50:42;;;;;;;25.47;12.40;;;;;;;-2.12;100.00;96905.59;4948893;28;20303;-86
2021/12/22 04:53:13;;;;;;;26.80;12.47;;;;;;;-2.10;100.00;96906.31;4971584;28;20192;-86
2021/12/22 04:55:41;;;;;;;25.13;12.37;;;;;;;-2.10;100.00;96916.91;4951347;28;20216;-87
2021/12/22 04:58:08;;;;;;;23.83;13.03;;;;;;;-2.14;100.00;96910.22;4954142;28;20297;-86
2021/12/22 05:00:37;;;;;;;25.33;12.00;;;;;;;-2.11;100.00;96909.94;4953104;28;20289;-87
2021/12/22 05:03:04;;;;;;;24.20;12.03;;;;;;;-2.09;100.00;96900.88;4954555;28;20247;-87
2021/12/22 05:05:32;;;;;;;23.97;11.43;;;;;;;-2.07;100.00;96906.03;4950274;28;20268;-87
2021/12/22 05:08:01;;;;;;;21.93;12.10;;;;;;;-2.06;100.00;96899.78;4969572;28;20219;-87
2021/12/22 05:10:29;;;;;;;26.30;13.03;;;;;;;-2.09;100.00;96905.34;4955868;28;20211;-87
2021/12/22 05:12:56;;;;;;;25.37;11.70;;;;;;;-2.14;100.00;96904.94;4946608;28;20213;-87
2021/12/22 05:15:25;;;;;;;23.50;11.77;;;;;;;-2.16;100.00;96906.88;4951073;28;20256;-86
2021/12/22 05:20:44;;;;;;;25.70;12.77;;;;;;;-2.13;100.00;96907.44;4937775;28;20220;-87
2021/12/22 05:23:12;;;;;;;23.43;11.87;;;;;;;-2.15;100.00;96908.53;4945991;28;20213;-87
2021/12/22 05:25:40;;;;;;;26.97;12.77;;;;;;;-2.14;100.00;96899.63;4949310;28;20294;-86
2021/12/22 05:28:07;;;;;;;25.17;11.93;;;;;;;-2.12;100.00;96903.78;4955707;28;20233;-87
2021/12/22 05:30:34;;;;;;;23.23;11.77;;;;;;;-2.13;100.00;96906.59;4948504;28;20307;-86
2021/12/22 05:33:01;;;;;;;22.03;11.97;;;;;;;-2.22;100.00;96888.91;4965955;28;20213;-87
2021/12/22 05:35:29;;;;;;;22.70;11.90;;;;;;;-2.20;100.00;96900.16;4953608;28;20243;-86
2021/12/22 05:37:56;;;;;;;24.00;12.83;;;;;;;-2.23;100.00;96905.75;4952296;28;20212;-87
2021/12/22 05:40:27;;;;;;;21.60;10.77;;;;;;;-2.17;100.00;96897.25;4953877;28;20212;-86
2021/12/22 05:42:57;;;;;;;23.13;12.50;;;;;;;-2.19;100.00;96897.38;4943017;28;20208;-87
2021/12/22 05:45:24;;;;;;;23.27;11.57;;;;;;;-2.19;100.00;96901.84;4945254;28;20239;-87
2021/12/22 05:47:53;;;;;;;24.60;12.17;;;;;;;-2.13;100.00;96896.84;4948318;28;20216;-86
2021/12/22 05:50:21;;;;;;;22.93;12.27;;;;;;;-2.13;100.00;96899.50;4963583;28;20212;-86
2021/12/22 05:52:49;;;;;;;23.30;12.40;;;;;;;-2.19;100.00;96897.38;4946713;28;20212;-86
2021/12/22 05:55:16;;;;;;;23.20;11.50;;;;;;;-2.14;100.00;96902.28;4951265;28;20205;-87
2021/12/22 05:57:45;;;;;;;23.20;12.03;;;;;;;-2.23;100.00;96897.81;4945753;28;20279;-86
2021/12/22 06:00:14;;;;;;;24.67;11.90;;;;;;;-2.25;100.00;96897.13;4949825;28;20228;-86
2021/12/22 06:02:41;;;;;;;24.37;11.83;;;;;;;-2.23;100.00;96901.31;4949655;28;20310;-86
2021/12/22 06:05:10;;;;;;;23.03;11.83;;;;;;;-2.26;100.00;96895.44;4942594;28;20256;-86
2021/12/22 06:07:37;;;;;;;21.60;11.13;;;;;;;-2.28;100.00;96891.13;4949091;28;20220;-86
2021/12/22 06:10:05;;;;;;;26.40;12.47;;;;;;;-2.24;100.00;96888.22;4946294;28;20227;-86
2021/12/22 06:12:32;;;;;;;25.80;12.30;;;;;;;-2.20;100.00;96890.44;4947031;28;20213;-87
2021/12/22 06:15:01;;;;;;;22.20;11.43;;;;;;;-2.17;100.00;96907.84;4944313;28;20216;-87
2021/12/22 06:17:28;;;;;;;27.57;12.13;;;;;;;-2.14;100.00;96899.63;4947069;29;20303;-87
2021/12/22 06:19:55;;;;;;;24.40;11.50;;;;;;;-2.10;100.00;96906.31;4952032;28;20211;-87
2021/12/22 06:22:22;;;;;;;24.53;12.87;;;;;;;-2.13;100.00;96911.91;4952214;28;20240;-86
2021/12/22 06:24:50;;;;;;;24.83;12.20;;;;;;;-2.12;100.00;96913.53;4966081;28;20272;-87
2021/12/22 06:27:17;;;;;;;28.70;13.30;;;;;;;-2.15;100.00;96919.13;4952947;28;20696;-87
2021/12/22 06:29:44;;;;;;;22.90;11.70;;;;;;;-2.18;100.00;96922.03;4946140;28;20408;-87
2021/12/22 06:32:13;;;;;;;23.73;11.70;;;;;;;-2.32;100.00;96918.00;4953742;28;20221;-88
2021/12/22 06:34:40;;;;;;;26.60;13.57;;;;;;;-2.43;100.00;96915.47;4941012;28;20244;-86
2021/12/22 06:37:07;;;;;;;23.67;12.53;;;;;;;-2.34;100.00;96914.66;4950083;28;20202;-87
2021/12/22 06:39:36;;;;;;;24.60;12.50;;;;;;;-2.30;100.00;96916.88;4951843;28;20206;-87
2021/12/22 06:42:03;;;;;;;22.23;12.67;;;;;;;-2.28;100.00;96914.09;4955620;28;20484;-87
2021/12/22 06:44:30;;;;;;;22.37;11.63;;;;;;;-2.24;100.00;96909.38;4941771;28;20221;-86
2021/12/22 06:46:57;;;;;;;25.13;12.67;;;;;;;-2.16;100.00;96909.53;4952061;28;20214;-86
2021/12/22 06:49:25;;;;;;;24.20;11.97;;;;;;;-2.16;100.00;96918.28;4948387;28;20245;-86
2021/12/22 06:51:53;;;;;;;24.03;12.07;;;;;;;-2.10;100.00;96928.31;4941030;29;20209;-87
2021/12/22 06:54:20;;;;;;;24.73;13.40;;;;;;;-2.03;100.00;96929.44;4946788;28;20201;-86
2021/12/22 06:56:47;;;;;;;25.00;12.20;;;;;;;-2.00;100.00;96933.63;4954139;28;20205;-87
2021/12/22 06:59:15;;;;;;;20.43;11.50;;;;;;;-2.00;100.00;96934.47;4946993;28;20197;-87
2021/12/22 07:01:42;;;;;;;24.17;12.90;;;;;;;-1.99;100.00;96935.28;4949464;28;20216;-87
2021/12/22 07:04:09;;;;;;;22.13;11.73;;;;;;;-2.03;100.00;96939.19;4956106;28;20292;-86
2021/12/22 07:06:37;;;;;;;22.67;12.37;;;;;;;-2.11;100.00;96937.22;4964041;28;20227;-87
2021/12/22 07:09:07;;;;;;;24.17;12.63;;;;;;;-2.12;100.00;96940.00;4946869;28;20259;-87
2021/12/22 07:11:34;;;;;;;24.87;13.30;;;;;;;-2.09;100.00;96945.88;4949890;28;20215;-87
2021/12/22 07:14:02;;;;;;;23.50;11.93;;;;;;;-2.07;100.00;96948.38;4949342;28;20307;-87
2021/12/22 07:16:29;;;;;;;24.60;11.83;;;;;;;-2.12;100.00;96934.72;4943246;28;20271;-87
2021/12/22 07:18:57;;;;;;;29.27;13.47;;;;;;;-2.09;100.00;96950.31;4961298;28;20216;-87
2021/12/22 07:21:24;;;;;;;27.60;12.90;;;;;;;-2.13;100.00;96939.19;4942593;28;20219;-86
2021/12/22 07:23:53;;;;;;;23.77;12.03;;;;;;;-2.19;100.00;96938.88;4952529;28;20209;-86
2021/12/22 07:26:20;;;;;;;23.27;12.77;;;;;;;-2.21;100.00;96957.53;4944632;28;20232;-86
2021/12/22 07:28:49;;;;;;;28.83;13.33;;;;;;;-2.23;100.00;96948.09;4944610;28;20250;-88
2021/12/22 07:31:17;;;;;;;25.97;12.50;;;;;;;-2.24;100.00;96943.75;4950115;28;20208;-88
2021/12/22 07:33:49;;;;;;;25.27;12.67;;;;;;;-2.24;100.00;96946.41;4961947;28;20215;-86
2021/12/22 07:36:16;;;;;;;22.17;11.53;;;;;;;-2.17;100.00;96955.47;4965612;28;20516;-86
2021/12/22 07:38:53;;;;;;;25.83;12.33;;;;;;;-2.19;100.00;96950.31;4952206;28;20212;-87
2021/12/22 07:41:21;;;;;;;22.60;12.00;;;;;;;-2.28;100.00;96945.81;4955096;28;20204;-87
2021/12/22 07:43:48;;;;;;;25.43;12.70;;;;;;;-2.30;100.00;96961.03;4951542;28;20232;-83
2021/12/22 07:46:16;;;;;;;22.43;11.53;;;;;;;-2.35;100.00;96957.94;4958282;28;20296;-83
2021/12/22 07:48:43;;;;;;;22.03;12.40;;;;;;;-2.34;100.00;96952.50;4937816;28;20213;-83
2021/12/22 07:51:10;;;;;;;23.90;12.13;;;;;;;-2.34;100.00;96955.16;4944205;28;20204;-83
2021/12/22 07:53:37;;;;;;;27.50;12.03;;;;;;;-2.37;100.00;96962.50;4951626;28;20251;-82
2021/12/22 07:56:05;;;;;;;25.20;12.47;;;;;;;-2.38;100.00;96955.53;4953641;28;20216;-82
2021/12/22 07:58:33;;;;;;;23.53;11.63;;;;;;;-2.30;100.00;96964.47;4950335;28;20220;-83
2021/12/22 08:01:01;;;;;;;24.70;12.20;;;;;;;-2.21;100.00;96969.94;4955061;28;20222;-83
2021/12/22 08:03:28;;;;;;;22.03;11.13;;;;;;;-2.18;100.00;96961.72;4949870;28;20209;-81
2021/12/22 08:05:56;;;;;;;23.00;11.90;;;;;;;-2.21;100.00;96965.47;4946277;28;20205;-82
2021/12/22 08:08:23;;;;;;;24.80;12.40;;;;;;;-2.33;100.00;96963.94;4966975;28;20220;-85
2021/12/22 08:10:50;;;;;;;26.60;12.50;;;;;;;-2.45;100.00;96955.25;4952083;28;20231;-86
2021/12/22 08:13:18;;;;;;;31.93;14.50;;;;;;;-2.47;100.00;96957.22;4956523;28;20210;-86
2021/12/22 08:15:46;;;;;;;25.33;12.40;;;;;;;-2.48;100.00;96952.06;4939346;29;20211;-86
2021/12/22 08:18:13;;;;;;;25.43;12.67;;;;;;;-2.52;100.00;96943.56;4945259;28;20265;-82
2021/12/22 08:20:41;;;;;;;22.00;12.13;;;;;;;-2.48;100.00;96944.97;4953130;28;20299;-83
2021/12/22 08:23:09;;;;;;;24.90;12.37;;;;;;;-2.42;100.00;96955.00;4945528;28;20207;-86
2021/12/22 08:25:36;;;;;;;24.30;12.00;;;;;;;-2.54;100.00;96956.06;4969551;28;20299;-85
2021/12/22 08:28:04;;;;;;;25.70;13.57;;;;;;;-2.52;100.00;96959.41;4940657;29;20232;-86
2021/12/22 08:30:31;;;;;;;28.07;12.90;;;;;;;-2.50;100.00;96962.78;4947916;28;20228;-87
2021/12/22 08:33:04;;;;;;;24.00;12.30;;;;;;;-2.45;100.00;96960.53;4953663;28;20216;-88
2021/12/22 08:38:50;;;;;;;26.57;12.40;;;;;;;-2.55;100.00;96966.81;4969998;28;20235;-87
2021/12/22 08:41:04;;;;;;;27.00;12.43;;;;;;;-2.50;100.00;96980.44;4950666;28;20214;-87
2021/12/22 08:43:31;;;;;;;22.63;11.40;;;;;;;-2.50;100.00;96988.38;4954367;28;20208;-87
2021/12/22 08:45:59;;;;;;;23.50;12.30;;;;;;;-2.51;100.00;96992.81;4948012;28;20205;-86
2021/12/22 08:48:27;;;;;;;26.57;11.80;;;;;;;-2.56;100.00;97002.97;4959193;28;20273;-87
2021/12/22 08:50:55;;;;;;;36.50;11.87;;;;;;;-2.48;100.00;97003.16;4947237;28;20230;-87
2021/12/22 08:53:22;;;;;;;25.50;12.33;;;;;;;-2.38;100.00;97000.50;4947312;28;20207;-86
2021/12/22 08:55:49;;;;;;;26.73;11.83;;;;;;;-2.37;100.00;96997.72;4945085;28;20298;-88
2021/12/22 08:58:16;;;;;;;23.00;11.67;;;;;;;-2.35;100.00;96993.16;4955292;28;20229;-87
2021/12/22 09:00:43;;;;;;;26.43;12.23;;;;;;;-2.31;100.00;97015.72;4948216;28;20235;-86
2021/12/22 09:03:10;;;;;;;26.17;12.53;;;;;;;-2.43;100.00;96995.63;4947233;28;20214;-86
2021/12/22 09:05:39;;;;;;;27.20;12.83;;;;;;;-2.41;100.00;97000.78;4967515;28;20255;-85
2021/12/22 09:08:07;;;;;;;26.70;12.80;;;;;;;-2.39;100.00;97007.63;4948960;28;20216;-85
2021/12/22 09:10:34;;;;;;;26.13;12.67;;;;;;;-2.43;100.00;97011.50;4946697;28;20224;-85
2021/12/22 09:13:02;;;;;;;21.33;11.30;;;;;;;-2.44;100.00;97009.81;4945241;29;20213;-86
2021/12/22 09:15:29;;;;;;;22.43;12.13;;;;;;;-2.48;100.00;97007.59;4950955;28;20293;-86
2021/12/22 09:17:57;;;;;;;25.30;13.07;;;;;;;-2.53;100.00;97015.06;4947897;28;20218;-85
2021/12/22 09:20:24;;;;;;;27.97;13.17;;;;;;;-2.48;100.00;97008.44;4952793;28;20226;-86
2021/12/22 09:22:53;;;;;;;29.40;12.80;;;;;;;-2.46;100.00;97006.47;4953420;28;20205;-85
2021/12/22 09:25:20;;;;;;;25.90;12.50;;;;;;;-2.46;100.00;97005.63;4944474;28;20234;-85
2021/12/22 09:27:47;;;;;;;26.93;13.40;;;;;;;-2.40;100.00;97005.94;4951784;28;20240;-86
2021/12/22 09:30:15;;;;;;;29.57;12.83;;;;;;;-2.41;100.00;96999.00;4952817;28;20312;-85
2021/12/22 09:32:42;;;;;;;24.27;12.87;;;;;;;-2.41;100.00;97004.28;4954559;28;20261;-84
2021/12/22 09:35:12;;;;;;;28.00;12.90;;;;;;;-2.43;100.00;97008.84;4950783;28;20331;-85
2021/12/22 09:37:39;;;;;;;28.43;12.87;;;;;;;-2.34;100.00;97005.41;4949877;28;20496;-85
2021/12/22 09:40:10;;;;;;;23.87;11.83;;;;;;;-2.28;100.00;97019.88;4948425;28;20349;-85
2021/12/22 09:42:38;;;;;;;26.57;12.80;;;;;;;-2.24;100.00;97017.81;4943251;28;20213;-85
2021/12/22 09:45:06;;;;;;;25.10;11.77;;;;;;;-2.20;100.00;97021.88;4948155;28;20236;-85
2021/12/22 09:47:49;;;;;;;28.20;13.23;;;;;;;-2.17;100.00;97016.31;4950925;29;20225;-85
2021/12/22 09:50:24;;;;;;;25.43;12.37;;;;;;;-2.10;100.00;97017.44;4942425;28;20227;-85
2021/12/22 09:52:52;;;;;;;19.10;10.67;;;;;;;-2.06;100.00;97011.75;4926969;28;20209;-85
2021/12/22 09:55:20;;;;;;;24.43;12.23;;;;;;;-1.97;100.00;97016.22;4950603;29;20308;-85
2021/12/22 09:57:47;;;;;;;26.03;12.80;;;;;;;-1.87;100.00;97012.75;4943577;28;20284;-86
2021/12/22 10:00:15;;;;;;;31.13;13.23;;;;;;;-1.83;100.00;97019.44;4952488;28;20197;-85
2021/12/22 10:02:42;;;;;;;27.17;12.50;;;;;;;-1.82;100.00;97014.00;4969610;28;20207;-85
2021/12/22 10:05:09;;;;;;;26.43;12.13;;;;;;;-1.86;100.00;97009.13;4950064;28;20277;-85
2021/12/22 10:07:40;;;;;;;23.77;11.80;;;;;;;-2.05;100.00;97009.94;4944091;29;20209;-85
2021/12/22 10:10:11;;;;;;;25.70;11.73;;;;;;;-2.22;100.00;97006.16;4937866;29;20358;-80
2021/12/22 10:12:40;;;;;;;29.13;12.07;;;;;;;-2.14;100.00;97014.25;4947498;28;20202;-83
2021/12/22 10:15:10;;;;;;;28.60;12.60;;;;;;;-2.08;100.00;97011.03;4953986;28;20207;-83
2021/12/22 10:17:39;;;;;;;22.27;11.47;;;;;;;-2.04;100.00;97008.97;4961557;28;20234;-83
2021/12/22 10:20:08;;;;;;;28.27;11.80;;;;;;;-2.03;100.00;97005.34;4937634;28;20256;-84
2021/12/22 10:22:37;;;;;;;24.20;12.63;;;;;;;-1.93;100.00;97000.91;4950217;29;20218;-83
2021/12/22 10:25:11;;;;;;;27.20;11.97;;;;;;;-1.88;100.00;96985.47;4963337;28;20203;-83
2021/12/22 10:27:42;;;;;;;24.17;12.20;;;;;;;-1.86;100.00;96988.78;4946574;28;20240;-83
2021/12/22 10:30:29;;;;;;;27.10;12.73;;;;;;;-1.81;100.00;96989.22;4942054;28;20236;-82
2021/12/22 10:33:08;;;;;;;24.87;12.00;;;;;;;-1.74;100.00;96971.81;4940328;28;20205;-83
2021/12/22 10:35:37;;;;;;;28.27;12.80;;;;;;;-1.65;100.00;96972.78;4950595;28;20283;-83
2021/12/22 10:38:05;;;;;;;21.83;11.37;;;;;;;-1.72;100.00;96964.56;4945360;28;20312;-83
2021/12/22 10:40:34;;;;;;;25.37;11.90;;;;;;;-1.64;100.00;96959.41;4943777;28;20205;-83
2021/12/22 10:43:05;;;;;;;23.03;11.47;;;;;;;-1.55;100.00;96971.81;4954308;28;20208;-83
2021/12/22 10:45:35;;;;;;;26.00;11.73;;;;;;;-1.57;100.00;96960.50;4942560;28;20266;-84
2021/12/22 10:50:57;;;;;;;24.40;11.90;;;;;;;-1.31;100.00;96938.72;4947305;28;20230;-82
2021/12/22 10:53:25;;;;;;;26.40;11.93;;;;;;;-1.39;100.00;96928.00;4964053;28;20224;-82
2021/12/22 10:55:56;;;;;;;31.97;11.77;;;;;;;-1.34;100.00;96915.16;4948105;28;20227;-81
2021/12/22 10:58:28;;;;;;;25.97;11.87;;;;;;;-1.24;100.00;96902.72;4941295;28;20208;-81
2021/12/22 11:01:08;;;;;;;24.60;11.93;;;;;;;-1.06;100.00;96898.34;4952867;28;20208;-81
2021/12/22 11:03:41;;;;;;;20.50;10.63;;;;;;;-1.11;100.00;96892.66;4966525;28;20209;-81
2021/12/22 11:06:15;;;;;;;22.83;11.97;;;;;;;-0.74;100.00;96892.63;4953703;28;20215;-81
2021/12/22 11:08:42;;;;;;;26.73;13.60;;;;;;;-0.36;100.00;96902.22;4955571;28;20212;-81
2021/12/22 11:11:13;;;;;;;21.20;11.70;;;;;;;-0.31;100.00;96891.97;4958996;28;20220;-81
2021/12/22 11:13:43;;;;;;;22.67;11.33;;;;;;;-0.16;100.00;96887.81;4953737;28;20295;-84
2021/12/22 11:16:14;;;;;;;24.47;12.03;;;;;;;0.07;100.00;96876.75;4943478;28;20212;-82
2021/12/22 11:18:42;;;;;;;22.77;11.57;;;;;;;0.05;100.00;96874.25;4948203;28;20217;-81
2021/12/22 11:21:13;;;;;;;20.87;11.57;;;;;;;0.13;100.00;96878.78;4942492;28;20243;-80
2021/12/22 11:23:41;;;;;;;23.80;12.47;;;;;;;0.31;100.00;96864.53;4961219;28;20206;-85
2021/12/22 11:26:09;;;;;;;23.50;11.63;;;;;;;0.33;100.00;96857.25;4944722;28;20231;-85
2021/12/22 11:28:36;;;;;;;28.63;11.27;;;;;;;0.64;98.33;96860.28;4950027;29;20229;-86